Time;durP1;ratioP1;P1;durP2;ratioP2;P2;SDS_P1;SDS_P2;PMS_P1;PMS_P2;Temp;Humidity;BMP_temperature;BMP_pressure;BME280_temperature;BME280_humidity;BME280_pressure;Samples;Min_cycle;Max_cycle;Signal;HPM_P1;HPM_P2
2022/05/31 00:00:39;;;;;;;17.45;15.55;;;;;;;19.77;71.77;100984.88;6176580;23;20036;-80
2022/05/31 00:03:10;;;;;;;17.20;15.10;;;;;;;19.62;72.05;100974.91;6211552;23;20099;-80
2022/05/31 00:05:36;;;;;;;22.20;15.18;;;;;;;19.07;71.94;100886.56;6191321;23;20032;-81
2022/05/31 00:08:04;;;;;;;18.90;15.48;;;;;;;19.81;72.04;100999.66;6191599;23;20024;-81
2022/05/31 00:10:31;;;;;;;17.50;14.90;;;;;;;19.77;72.00;101001.88;6217423;23;20020;-81
2022/05/31 00:12:57;;;;;;;21.50;16.70;;;;;;;19.67;72.03;100995.91;6191725;23;20039;-81
2022/05/31 00:15:27;;;;;;;19.67;17.27;;;;;;;19.03;72.03;100891.50;6191303;23;20027;-81
2022/05/31 00:17:54;;;;;;;20.67;17.92;;;;;;;19.52;72.30;100976.25;6191727;23;20021;-83
2022/05/31 00:20:21;;;;;;;25.52;18.60;;;;;;;19.66;72.51;101010.41;6191139;23;20157;-81
2022/05/31 00:22:48;;;;;;;20.08;17.70;;;;;;;19.63;72.66;101011.59;6191328;23;20140;-81
2022/05/31 00:25:16;;;;;;;22.98;18.38;;;;;;;18.67;72.99;100864.44;6191324;23;20098;-81
2022/05/31 00:27:44;;;;;;;24.33;18.52;;;;;;;19.54;73.25;101022.63;6191398;23;20456;-82
2022/05/31 00:30:12;;;;;;;23.15;19.33;;;;;;;19.59;73.10;101022.94;6217565;23;20610;-81
2022/05/31 00:32:47;;;;;;;24.38;18.65;;;;;;;18.88;73.16;100910.28;6191642;23;20055;-81
2022/05/31 00:35:20;;;;;;;19.90;17.55;;;;;;;19.51;73.52;101017.63;6191808;23;20067;-82
2022/05/31 00:37:47;;;;;;;24.90;19.30;;;;;;;19.56;73.54;101025.97;6218564;23;20076;-82
2022/05/31 00:40:16;;;;;;;27.40;18.60;;;;;;;19.43;73.14;101000.53;6181794;23;20098;-82
2022/05/31 00:42:56;;;;;;;21.20;18.10;;;;;;;19.40;73.38;101000.91;6181729;23;20021;-81
2022/05/31 00:45:47;;;;;;;20.80;18.05;;;;;;;19.47;73.51;101019.88;6218103;23;20017;-81
2022/05/31 00:48:27;;;;;;;18.45;16.55;;;;;;;19.03;73.57;100939.06;6191434;23;20420;-80
2022/05/31 00:51:04;;;;;;;23.73;17.65;;;;;;;19.46;73.47;101006.59;6182672;23;20383;-81
2022/05/31 00:53:43;;;;;;;20.60;18.33;;;;;;;18.90;73.63;100923.56;6193042;23;20024;-81
2022/05/31 00:56:19;;;;;;;21.77;17.80;;;;;;;19.47;73.24;101002.84;6192790;23;20538;-81
2022/05/31 00:59:11;;;;;;;23.25;20.65;;;;;;;19.52;73.40;100993.22;6194428;23;20028;-81
2022/05/31 01:01:41;;;;;;;24.30;19.77;;;;;;;19.59;73.20;100993.31;6192984;23;20852;-81
2022/05/31 01:04:11;;;;;;;21.45;18.73;;;;;;;19.52;73.23;100992.41;6219705;23;20021;-81
2022/05/31 01:06:38;;;;;;;18.70;16.30;;;;;;;19.52;72.58;100995.09;6183801;23;20510;-81
2022/05/31 01:09:06;;;;;;;24.48;16.35;;;;;;;19.20;72.65;100941.41;6183476;23;20452;-81
2022/05/31 01:11:43;;;;;;;21.65;17.05;;;;;;;19.27;72.71;100971.09;6192999;23;20012;-80
2022/05/31 01:14:11;;;;;;;23.42;18.25;;;;;;;18.89;73.29;100909.28;6193148;23;20023;-80
2022/05/31 01:16:58;;;;;;;23.58;17.40;;;;;;;19.04;73.26;100952.34;6193496;23;20095;-81
2022/05/31 01:22:11;;;;;;;24.30;16.88;;;;;;;19.34;73.59;101007.03;6221788;23;20024;-80
2022/05/31 01:24:59;;;;;;;20.42;16.65;;;;;;;18.42;73.48;100853.88;6211009;23;20080;-82
2022/05/31 01:27:43;;;;;;;22.92;17.20;;;;;;;19.46;73.65;101031.66;6193432;23;20279;-81
2022/05/31 01:30:11;;;;;;;18.63;16.13;;;;;;;19.35;73.73;101008.72;6193503;23;20021;-81
2022/05/31 01:32:47;;;;;;;21.92;15.88;;;;;;;19.13;73.48;100958.50;6193047;23;20024;-82
2022/05/31 01:35:34;;;;;;;19.65;16.02;;;;;;;19.24;73.93;100987.63;6194604;23;20021;-83
2022/05/31 01:38:13;;;;;;;21.00;16.73;;;;;;;19.51;73.85;101037.31;6195457;23;20384;-81
2022/05/31 01:40:56;;;;;;;20.50;16.83;;;;;;;19.45;74.03;101023.78;6196053;23;20078;-81
2022/05/31 01:43:23;;;;;;;20.52;16.20;;;;;;;19.45;73.94;101029.16;6193947;23;20022;-82
2022/05/31 01:45:55;;;;;;;16.17;14.68;;;;;;;19.39;74.31;101025.31;6193371;23;20099;-81
2022/05/31 01:48:27;;;;;;;24.67;18.02;;;;;;;19.50;74.20;101037.50;6192627;23;20035;-81
2022/05/31 01:50:54;;;;;;;;;;;;;;;19.43;74.52;101035.53;6193208;23;20024;-81
2022/05/31 01:53:20;;;;;;;21.52;17.95;;;;;;;19.40;74.72;101032.41;6191949;23;19939;-81
2022/05/31 01:55:48;;;;;;;23.38;17.90;;;;;;;19.40;74.50;101027.00;6192100;23;20363;-81
2022/05/31 01:58:22;;;;;;;19.80;17.77;;;;;;;19.45;74.51;101037.22;6192169;23;20055;-80
2022/05/31 02:00:50;;;;;;;23.77;17.77;;;;;;;18.97;74.51;100946.84;6191730;23;20082;-80
2022/05/31 02:03:19;;;;;;;26.70;19.42;;;;;;;19.46;74.83;101033.50;6191409;23;20365;-81
2022/05/31 02:05:48;;;;;;;25.42;19.88;;;;;;;19.38;74.62;101018.28;6192150;23;20155;-80
2022/05/31 02:08:17;;;;;;;22.42;19.75;;;;;;;19.45;74.77;101029.16;6182021;23;20028;-81
2022/05/31 02:10:45;;;;;;;26.75;21.15;;;;;;;18.89;74.62;100944.25;6191989;23;20028;-79
2022/05/31 02:13:13;;;;;;;23.52;19.17;;;;;;;18.13;74.78;100809.81;6192097;23;20103;-81
2022/05/31 02:15:40;;;;;;;27.67;21.85;;;;;;;18.69;74.92;100906.25;6192292;23;20507;-79
2022/05/31 02:18:09;;;;;;;25.27;20.70;;;;;;;18.64;74.85;100895.22;6188397;23;20203;-81
2022/05/31 02:20:35;;;;;;;26.05;20.88;;;;;;;19.50;74.66;101032.13;6181962;23;20031;-81
2022/05/31 02:23:02;;;;;;;29.98;20.23;;;;;;;19.56;74.57;101029.50;6182423;23;20024;-82
2022/05/31 02:25:29;;;;;;;25.33;20.17;;;;;;;19.54;74.77;101044.19;6192068;23;20016;-83
2022/05/31 02:27:56;;;;;;;21.35;19.08;;;;;;;19.41;74.57;101029.50;6192143;23;20039;-81
2022/05/31 02:30:23;;;;;;;30.30;18.45;;;;;;;19.52;74.88;101040.88;6192480;23;20086;-80
2022/05/31 02:32:50;;;;;;;21.60;19.40;;;;;;;19.48;74.37;101020.69;6192737;23;20474;-81
2022/05/31 02:35:17;;;;;;;23.77;16.52;;;;;;;19.62;74.01;101052.19;6218392;23;20021;-80
2022/05/31 02:37:44;;;;;;;26.23;17.58;;;;;;;19.42;74.11;101024.97;6191835;23;20412;-81
2022/05/31 02:40:11;;;;;;;18.92;16.58;;;;;;;19.54;74.11;101044.19;6182232;23;20020;-80
2022/05/31 02:42:39;;;;;;;20.15;15.52;;;;;;;19.27;73.74;100999.88;6192380;23;20020;-81
2022/05/31 02:45:09;;;;;;;20.23;17.25;;;;;;;19.46;73.73;101036.19;6192481;23;20099;-82
2022/05/31 02:47:39;;;;;;;20.95;17.83;;;;;;;19.26;73.96;101009.81;6218597;23;20079;-81
2022/05/31 02:50:07;;;;;;;21.98;16.88;;;;;;;19.58;74.17;101059.78;6181948;23;20024;-82
2022/05/31 02:52:34;;;;;;;19.30;17.02;;;;;;;19.59;73.59;101061.47;6207865;23;20024;-80
2022/05/31 02:55:01;;;;;;;30.65;18.98;;;;;;;19.50;73.65;101037.50;6208436;23;20024;-81
2022/05/31 02:57:28;;;;;;;19.75;17.50;;;;;;;19.56;73.32;101048.34;6192520;23;20020;-81
2022/05/31 02:59:55;;;;;;;23.30;19.30;;;;;;;19.61;73.58;101058.56;6218772;23;20406;-81
2022/05/31 03:02:22;;;;;;;23.13;17.17;;;;;;;19.61;73.24;101062.13;6218046;23;20461;-81
2022/05/31 03:04:49;;;;;;;20.67;17.90;;;;;;;19.28;73.65;101015.84;6192019;23;20318;-81
2022/05/31 03:07:15;;;;;;;25.08;17.77;;;;;;;19.33;73.88;101032.28;6192342;23;20028;-81
2022/05/31 03:09:42;;;;;;;21.80;16.00;;;;;;;19.39;73.64;101028.00;6191750;23;20025;-81
2022/05/31 03:12:13;;;;;;;20.77;15.55;;;;;;;19.52;73.58;101051.63;6191758;23;20013;-82
2022/05/31 03:15:08;;;;;;;17.02;15.00;;;;;;;19.49;73.58;101050.16;6191899;23;20055;-80
2022/05/31 03:17:38;;;;;;;17.50;15.70;;;;;;;19.26;73.37;101015.19;6174213;23;20465;-81
2022/05/31 03:20:04;;;;;;;18.42;16.42;;;;;;;18.93;73.39;100966.22;6218441;23;20020;-79
2022/05/31 03:22:38;;;;;;;22.83;15.95;;;;;;;19.51;73.67;101061.53;6192097;23;20027;-81
2022/05/31 03:25:12;;;;;;;19.13;15.85;;;;;;;19.37;73.53;101039.00;6192349;23;20100;-80
2022/05/31 03:27:38;;;;;;;20.73;17.15;;;;;;;19.53;73.58;101064.06;6192533;23;20017;-83
2022/05/31 03:30:06;;;;;;;19.55;17.38;;;;;;;19.54;73.57;101071.97;6195004;23;20090;-80
2022/05/31 03:32:35;;;;;;;20.05;18.05;;;;;;;19.58;73.19;101067.03;6194237;23;20424;-81
2022/05/31 03:35:03;;;;;;;20.05;17.10;;;;;;;18.13;72.49;100833.13;6192178;23;20050;-80
2022/05/31 03:37:30;;;;;;;21.67;18.35;;;;;;;19.60;72.96;101067.69;6192265;23;20456;-80
2022/05/31 03:39:57;;;;;;;20.65;18.05;;;;;;;19.62;72.61;101062.97;6192161;23;20221;-80
2022/05/31 03:42:24;;;;;;;19.15;17.13;;;;;;;19.60;72.53;101063.13;6191854;23;20038;-81
2022/05/31 03:44:51;;;;;;;20.38;18.15;;;;;;;19.43;72.69;101038.22;6191921;23;20423;-80
2022/05/31 03:47:19;;;;;;;22.08;18.75;;;;;;;19.50;72.12;101046.41;6218115;23;20404;-81
2022/05/31 03:49:45;;;;;;;20.60;18.27;;;;;;;19.55;72.48;101062.84;6192576;23;20031;-80
2022/05/31 03:52:13;;;;;;;20.63;17.38;;;;;;;19.32;72.42;101019.88;6181449;23;20025;-80
2022/05/31 03:54:39;;;;;;;21.63;17.98;;;;;;;19.45;72.54;101048.84;6192115;23;20012;-81
2022/05/31 03:57:12;;;;;;;20.00;17.70;;;;;;;19.56;72.68;101079.84;6182054;23;20070;-80
2022/05/31 03:59:38;;;;;;;21.70;18.85;;;;;;;19.33;72.62;101036.84;6219077;23;20017;-80
2022/05/31 04:02:06;;;;;;;28.27;19.63;;;;;;;19.00;72.61;100986.00;6192203;23;20020;-80
2022/05/31 04:04:33;;;;;;;22.63;18.60;;;;;;;19.52;72.11;101062.41;6218996;23;20044;-81
2022/05/31 04:07:00;;;;;;;20.30;18.20;;;;;;;18.93;71.97;100963.53;6192844;23;20017;-80
2022/05/31 04:09:27;;;;;;;24.83;18.60;;;;;;;19.40;71.94;101054.75;6182932;23;20449;-81
2022/05/31 04:11:56;;;;;;;29.77;20.90;;;;;;;19.61;71.55;101075.59;6192677;23;20055;-81
2022/05/31 04:14:23;;;;;;;28.83;20.80;;;;;;;19.33;71.27;101024.22;6218318;23;20021;-81
2022/05/31 04:16:50;;;;;;;25.20;22.50;;;;;;;19.30;71.27;101038.03;6191124;23;20031;-80
2022/05/31 04:19:17;;;;;;;26.25;22.60;;;;;;;19.49;71.03;101069.00;6217456;23;20056;-80
2022/05/31 04:21:43;;;;;;;27.70;22.88;;;;;;;19.60;70.65;101098.16;6181050;23;20028;-80
2022/05/31 04:24:11;;;;;;;33.30;23.45;;;;;;;19.65;70.51;101098.44;6191228;23;20071;-80
2022/05/31 04:26:42;;;;;;;32.40;23.50;;;;;;;18.87;70.83;100980.41;6193245;23;20041;-81
2022/05/31 04:29:09;;;;;;;32.53;22.73;;;;;;;19.42;71.80;101090.41;6192832;23;20020;-81
2022/05/31 04:31:36;;;;;;;27.20;22.20;;;;;;;19.45;72.50;101089.22;6183109;23;20028;-81
2022/05/31 04:34:04;;;;;;;25.00;21.58;;;;;;;18.88;72.73;101008.97;6219485;23;20024;-81
2022/05/31 04:36:31;;;;;;;25.95;20.90;;;;;;;19.20;72.42;101062.53;6193219;23;20456;-80
2022/05/31 04:39:00;;;;;;;30.70;22.13;;;;;;;19.42;73.17;101106.56;6219838;23;20024;-80
2022/05/31 04:41:28;;;;;;;25.80;21.88;;;;;;;19.40;73.16;101108.59;6192989;23;20024;-79
2022/05/31 04:43:58;;;;;;;27.73;24.05;;;;;;;19.50;73.06;101112.91;6193290;23;20027;-81
2022/05/31 04:46:27;;;;;;;26.38;22.15;;;;;;;18.69;74.00;100997.69;6193086;23;20360;-81
2022/05/31 04:48:56;;;;;;;30.15;23.65;;;;;;;18.81;74.70;101030.38;6183063;23;20020;-80
2022/05/31 04:51:23;;;;;;;27.63;24.55;;;;;;;19.11;74.47;101071.69;6182878;23;20020;-80
2022/05/31 04:53:50;;;;;;;33.30;24.02;;;;;;;19.39;73.73;101112.34;6192687;23;20020;-81
2022/05/31 04:56:19;;;;;;;33.70;25.42;;;;;;;19.36;73.83;101112.66;6192885;23;20071;-80
2022/05/31 04:58:49;;;;;;;30.37;23.80;;;;;;;18.84;73.78;101032.72;6221116;23;20188;-81
2022/05/31 05:01:17;;;;;;;28.95;24.50;;;;;;;19.29;74.73;101110.91;6226011;23;20260;-82
2022/05/31 05:03:44;;;;;;;32.08;26.05;;;;;;;19.11;74.29;101092.38;6214550;23;20361;-81
2022/05/31 05:06:13;;;;;;;29.83;24.55;;;;;;;18.24;75.64;100958.19;6211707;23;20091;-81
2022/05/31 05:08:41;;;;;;;31.92;25.77;;;;;;;18.36;76.23;100991.69;6223634;23;20024;-82
2022/05/31 05:11:11;;;;;;;31.45;24.60;;;;;;;18.68;75.33;101030.13;6199331;23;20047;-81
2022/05/31 05:13:39;;;;;;;27.42;24.45;;;;;;;19.11;76.33;101112.03;6193411;23;20017;-82
2022/05/31 05:16:07;;;;;;;32.30;25.38;;;;;;;19.15;75.64;101115.19;6192456;23;20075;-82
2022/05/31 05:18:34;;;;;;;36.15;25.00;;;;;;;19.17;75.26;101111.31;6209441;23;20213;-80
2022/05/31 05:21:03;;;;;;;36.17;25.45;;;;;;;19.12;76.17;101107.50;6182342;23;20084;-81
2022/05/31 05:23:30;;;;;;;35.65;25.95;;;;;;;18.98;76.43;101088.44;6208771;23;20024;-80
2022/05/31 05:25:58;;;;;;;33.85;27.80;;;;;;;18.55;75.59;101023.47;6192320;23;20017;-79
2022/05/31 05:31:27;;;;;;;30.90;26.95;;;;;;;18.96;76.22;101101.22;6218653;23;20017;-82
2022/05/31 05:33:55;;;;;;;31.17;25.88;;;;;;;18.96;76.33;101098.53;6192385;23;20012;-82
2022/05/31 05:36:22;;;;;;;34.85;26.63;;;;;;;19.02;76.72;101114.97;6195167;23;20016;-81
2022/05/31 05:38:50;;;;;;;36.10;28.17;;;;;;;19.04;76.43;101113.78;6196972;23;20023;-81
2022/05/31 05:41:20;;;;;;;31.42;27.45;;;;;;;19.01;75.34;101114.16;6194654;23;20017;-82
2022/05/31 05:43:47;;;;;;;35.95;27.40;;;;;;;19.02;75.12;101109.59;6192701;23;20547;-81
2022/05/31 05:46:17;;;;;;;37.03;27.20;;;;;;;18.96;75.57;101101.22;6192586;23;20048;-81
2022/05/31 05:48:45;;;;;;;30.55;26.65;;;;;;;19.08;75.32;101119.63;6182162;23;20056;-80
2022/05/31 05:51:21;;;;;;;32.92;28.20;;;;;;;18.34;75.36;100999.09;6218662;23;20048;-82
2022/05/31 05:53:48;;;;;;;36.30;28.02;;;;;;;18.86;74.76;101079.13;6192486;23;20024;-80
2022/05/31 05:56:16;;;;;;;33.00;26.80;;;;;;;19.18;75.14;101131.84;6219204;23;20032;-80
2022/05/31 05:58:44;;;;;;;36.15;27.65;;;;;;;18.92;75.25;101099.91;6193014;23;20025;-81
2022/05/31 06:01:17;;;;;;;35.35;27.15;;;;;;;18.73;75.27;101051.94;6218636;23;20483;-81
2022/05/31 06:03:49;;;;;;;34.85;27.10;;;;;;;19.22;75.63;101137.69;6193462;23;20031;-81
2022/05/31 06:06:17;;;;;;;;;;;;;;;19.18;75.78;101139.91;6193503;23;20367;-81
2022/05/31 06:08:46;;;;;;;40.58;29.48;;;;;;;19.17;75.33;101150.84;6209277;23;20251;-82
2022/05/31 06:11:22;;;;;;;35.75;26.63;;;;;;;19.07;76.42;101131.41;6192294;23;20086;-81
2022/05/31 06:13:54;;;;;;;36.92;27.30;;;;;;;19.23;75.65;101155.53;6182126;23;20028;-76
2022/05/31 06:16:26;;;;;;;34.67;26.95;;;;;;;18.17;74.92;100986.78;6182433;23;20428;-81
2022/05/31 06:19:02;;;;;;;31.73;26.80;;;;;;;18.92;75.23;101116.03;6181250;23;20023;-83
2022/05/31 06:21:28;;;;;;;32.88;25.88;;;;;;;19.23;75.71;101169.00;6182053;23;20083;-81
2022/05/31 06:23:56;;;;;;;35.97;26.40;;;;;;;19.15;75.80;101163.63;6192581;23;20165;-82
2022/05/31 06:26:30;;;;;;;28.02;24.77;;;;;;;18.89;76.71;101119.09;6184622;23;20017;-81
2022/05/31 06:28:58;;;;;;;33.28;25.70;;;;;;;19.28;75.76;101173.84;6219126;23;20070;-80
2022/05/31 06:31:25;;;;;;;39.75;26.73;;;;;;;18.91;76.67;101119.75;6219825;23;20088;-82
2022/05/31 06:33:51;;;;;;;30.90;24.13;;;;;;;18.98;75.74;101112.66;6193696;23;20435;-81
2022/05/31 06:36:18;;;;;;;31.17;23.95;;;;;;;18.82;76.07;101095.78;6192843;23;20021;-81
2022/05/31 06:38:45;;;;;;;35.20;25.27;;;;;;;19.08;76.11;101136.63;6192652;23;20063;-80
2022/05/31 06:41:13;;;;;;;31.77;26.48;;;;;;;19.22;75.57;101161.91;6191569;23;20241;-80
2022/05/31 06:43:40;;;;;;;40.45;27.90;;;;;;;19.36;76.01;101181.84;6191720;23;20345;-80
2022/05/31 06:46:09;;;;;;;38.25;28.02;;;;;;;19.27;75.30;101156.00;6183527;23;20020;-81
2022/05/31 06:48:36;;;;;;;37.55;28.60;;;;;;;19.31;75.06;101158.16;6180918;23;20403;-80
2022/05/31 06:51:05;;;;;;;41.65;29.67;;;;;;;19.17;75.30;101127.47;6217510;23;20468;-80
2022/05/31 06:59:03;;;;;;;37.97;29.85;;;;;;;19.52;74.34;101175.50;6218158;23;20024;-79
2022/05/31 07:01:37;;;;;;;40.90;30.08;;;;;;;19.62;74.30;101184.16;6191433;23;20083;-82
2022/05/31 07:04:04;;;;;;;40.30;31.65;;;;;;;19.61;73.95;101174.38;6181746;23;20024;-81
2022/05/31 07:06:32;;;;;;;46.83;32.83;;;;;;;19.40;74.05;101140.91;6181475;23;20261;-79
2022/05/31 07:08:59;;;;;;;47.72;32.00;;;;;;;19.68;73.73;101169.97;6191675;23;20189;-81
2022/05/31 07:11:26;;;;;;;42.42;31.73;;;;;;;19.61;74.12;101163.59;6191249;23;20249;-81
2022/05/31 07:13:54;;;;;;;46.00;33.05;;;;;;;19.71;73.85;101158.00;6191162;23;20535;-81
2022/05/31 07:16:20;;;;;;;50.85;33.45;;;;;;;19.70;73.54;101154.47;6191223;23;20017;-82
2022/05/31 07:18:47;;;;;;;46.92;33.15;;;;;;;19.86;73.46;101175.03;6191369;23;20112;-81
2022/05/31 07:21:14;;;;;;;49.67;34.80;;;;;;;19.23;72.85;101052.41;6181245;23;20315;-80
2022/05/31 07:23:41;;;;;;;50.08;34.63;;;;;;;19.83;72.67;101138.53;6191610;23;20024;-81
2022/05/31 07:26:09;;;;;;;52.70;35.30;;;;;;;18.85;73.45;100985.97;6191363;23;20024;-82
2022/05/31 07:28:56;;;;;;;53.17;35.35;;;;;;;18.95;73.44;100994.63;6206939;23;20017;-82
2022/05/31 07:31:23;;;;;;;48.92;33.22;;;;;;;19.38;72.52;101061.34;6181256;23;20091;-83
2022/05/31 07:33:50;;;;;;;50.72;32.80;;;;;;;19.40;73.28;101064.69;6191601;23;20315;-81
2022/05/31 07:36:19;;;;;;;45.95;33.22;;;;;;;18.70;73.87;100939.34;6191598;23;20042;-82
2022/05/31 07:38:46;;;;;;;48.17;33.28;;;;;;;19.07;73.32;100984.25;6191354;23;20012;-82
2022/05/31 07:41:13;;;;;;;52.70;34.05;;;;;;;18.74;73.40;100913.78;6212675;23;20464;-81
2022/05/31 07:43:45;;;;;;;51.90;33.65;;;;;;;20.02;73.17;101115.56;6221449;23;20021;-81
2022/05/31 07:46:13;;;;;;;52.78;33.65;;;;;;;20.13;73.20;101119.66;6182249;23;20020;-81
2022/05/31 07:48:41;;;;;;;54.83;36.85;;;;;;;20.22;72.81;101131.19;6191595;23;20020;-82
2022/05/31 07:51:10;;;;;;;53.03;33.30;;;;;;;20.33;72.41;101152.28;6191785;23;20016;-82
2022/05/31 07:53:37;;;;;;;52.30;35.53;;;;;;;19.89;72.83;101076.84;6191266;23;20013;-81
2022/05/31 07:56:08;;;;;;;48.05;33.20;;;;;;;19.60;72.45;101027.28;6191109;23;20017;-81
2022/05/31 07:58:37;;;;;;;60.23;33.13;;;;;;;20.40;72.22;101130.81;6191621;23;20380;-81
2022/05/31 08:01:08;;;;;;;49.28;32.60;;;;;;;20.05;72.30;101058.63;6192914;23;20291;-82
2022/05/31 08:03:35;;;;;;;51.90;34.42;;;;;;;20.04;71.65;101042.63;6192876;23;20063;-82
2022/05/31 08:06:04;;;;;;;56.47;30.90;;;;;;;19.84;72.00;101008.19;6210377;23;20224;-81
2022/05/31 08:08:31;;;;;;;50.10;32.25;;;;;;;20.81;72.26;101157.25;6192994;23;20020;-82
2022/05/31 08:11:06;;;;;;;41.97;29.23;;;;;;;19.74;72.64;100974.50;6194213;23;20092;-81
2022/05/31 08:13:33;;;;;;;50.88;30.70;;;;;;;20.31;72.37;101056.44;6193313;23;20013;-81
2022/05/31 08:16:02;;;;;;;41.42;26.88;;;;;;;21.02;72.37;101160.00;6219620;23;20348;-82
2022/05/31 08:18:29;;;;;;;41.10;26.80;;;;;;;20.52;72.30;101079.91;6183171;23;20028;-82
2022/05/31 08:21:01;;;;;;;41.00;28.15;;;;;;;21.08;71.99;101178.09;6192807;23;20020;-82
2022/05/31 08:23:28;;;;;;;50.22;29.52;;;;;;;21.18;71.74;101168.88;6193186;23;20016;-81
2022/05/31 08:25:56;;;;;;;48.08;31.17;;;;;;;20.56;71.32;101052.41;6192967;23;20460;-80
2022/05/31 08:28:23;;;;;;;47.63;31.58;;;;;;;21.30;71.36;101164.63;6192912;23;20020;-80
2022/05/31 08:30:55;;;;;;;44.30;29.63;;;;;;;21.13;70.59;101132.47;6193103;23;20046;-81
2022/05/31 08:33:24;;;;;;;41.85;29.27;;;;;;;21.33;71.23;101156.13;6193223;23;20025;-79
2022/05/31 08:35:52;;;;;;;51.28;29.50;;;;;;;21.61;70.72;101171.56;6193165;23;20017;-81
2022/05/31 08:38:29;;;;;;;49.17;30.10;;;;;;;21.29;70.14;101128.69;6209316;23;20049;-82
2022/05/31 08:41:11;;;;;;;45.45;31.02;;;;;;;21.22;70.30;101113.47;6193168;23;20091;-83
2022/05/31 08:43:47;;;;;;;53.88;31.15;;;;;;;21.66;70.25;101179.94;6192723;23;20361;-81
2022/05/31 08:46:29;;;;;;;48.97;31.25;;;;;;;21.46;69.54;101145.47;6183500;23;20476;-80
2022/05/31 08:48:59;;;;;;;49.30;31.67;;;;;;;21.65;69.24;101194.44;6210144;23;20021;-80
2022/05/31 08:51:52;;;;;;;46.00;31.90;;;;;;;21.63;69.84;101191.97;6210515;23;20020;-80
2022/05/31 08:57:36;;;;;;;51.50;32.05;;;;;;;21.60;69.72;101178.00;6228704;23;20476;-83
2022/05/31 09:00:15;;;;;;;53.63;32.00;;;;;;;21.68;69.70;101183.28;6218683;23;20121;-81
2022/05/31 09:03:07;;;;;;;48.45;31.15;;;;;;;21.51;69.53;101164.63;6200253;23;20081;-83
2022/05/31 09:05:43;;;;;;;57.72;34.58;;;;;;;21.70;69.58;101192.00;6213227;23;20079;-81
2022/05/31 09:08:55;;;;;;;53.75;32.60;;;;;;;21.66;70.13;101167.25;6212743;23;20009;-82
2022/05/31 09:11:27;;;;;;;47.00;33.28;;;;;;;21.88;69.30;101195.06;6105923;23;20497;-81
2022/05/31 09:14:01;;;;;;;47.47;33.53;;;;;;;21.50;68.75;101095.41;6178847;23;20021;-81
2022/05/31 09:16:41;;;;;;;52.42;33.30;;;;;;;21.95;69.14;101141.06;6187357;23;20361;-81
2022/05/31 09:19:14;;;;;;;47.78;32.75;;;;;;;21.75;68.16;101116.59;6186760;23;20013;-79
2022/05/31 09:21:46;;;;;;;50.22;33.05;;;;;;;22.26;67.54;101170.41;6177467;23;20033;-80
2022/05/31 09:24:16;;;;;;;51.30;33.08;;;;;;;21.89;68.13;101110.22;6187156;23;20021;-81
2022/05/31 09:26:53;;;;;;;54.13;32.95;;;;;;;22.48;67.80;101173.00;6186798;23;20013;-80
2022/05/31 09:29:31;;;;;;;45.22;32.67;;;;;;;22.55;67.09;101173.84;6188889;23;20342;-80
2022/05/31 09:32:17;;;;;;;45.05;30.15;;;;;;;22.22;67.34;101109.63;6187430;23;20020;-80
2022/05/31 09:34:50;;;;;;;45.67;31.27;;;;;;;22.70;67.30;101171.84;6187379;23;20075;-81
2022/05/31 09:37:47;;;;;;;43.30;29.67;;;;;;;22.76;66.41;101164.78;6187037;23;20465;-82
2022/05/31 09:40:28;;;;;;;37.47;27.33;;;;;;;22.86;66.19;101167.91;6186797;23;20021;-80
2022/05/31 09:43:13;;;;;;;37.88;28.67;;;;;;;22.94;65.97;101169.63;6187386;23;20036;-80
2022/05/31 09:45:51;;;;;;;37.78;25.77;;;;;;;23.06;65.76;101159.91;6189344;23;20021;-81
2022/05/31 09:48:18;;;;;;;33.60;24.33;;;;;;;23.14;65.25;101170.53;6187219;23;20076;-81
2022/05/31 09:50:44;;;;;;;36.35;24.90;;;;;;;23.13;65.41;101165.31;6187475;23;20384;-80
2022/05/31 09:59:22;;;;;;;33.05;25.02;;;;;;;23.21;65.32;101162.44;6178714;23;20481;-81
2022/05/31 10:01:48;;;;;;;38.20;23.02;;;;;;;23.38;64.65;101162.84;6174857;23;20124;-79
2022/05/31 10:04:28;;;;;;;29.35;22.95;;;;;;;23.60;64.46;101155.34;6183507;23;20025;-82
2022/05/31 10:07:05;;;;;;;30.85;22.70;;;;;;;23.73;63.28;101143.66;6185895;23;20017;-81
2022/05/31 10:09:37;;;;;;;29.30;20.95;;;;;;;23.97;62.16;101150.34;6187119;23;20049;-83
2022/05/31 10:12:10;;;;;;;27.35;20.77;;;;;;;24.21;61.69;101157.78;6187078;23;20017;-82
2022/05/31 10:14:41;;;;;;;27.40;18.40;;;;;;;24.22;61.89;101120.63;6176858;23;20021;-82
2022/05/31 10:17:32;;;;;;;26.50;19.10;;;;;;;24.03;60.39;101031.00;6177288;23;20021;-83
2022/05/31 10:20:07;;;;;;;26.67;14.77;;;;;;;24.64;58.48;101081.25;6167466;23;20029;-83
2022/05/31 10:22:35;;;;;;;23.23;15.15;;;;;;;25.27;58.07;101153.75;6187904;23;20025;-83
2022/05/31 10:25:25;;;;;;;20.25;13.18;;;;;;;25.32;56.37;101136.81;6186487;23;20020;-81
2022/05/31 10:27:58;;;;;;;16.08;12.70;;;;;;;25.35;56.89;101139.88;6186576;23;20570;-81
2022/05/31 10:30:25;;;;;;;17.85;11.68;;;;;;;24.38;56.75;101008.09;6186545;23;20504;-82
2022/05/31 10:32:56;;;;;;;21.42;12.30;;;;;;;25.00;57.48;101138.66;6186749;23;20100;-81
2022/05/31 10:35:31;;;;;;;23.05;17.45;;;;;;;24.99;58.12;101132.38;6186795;23;20032;-82
2022/05/31 10:38:05;;;;;;;17.42;13.70;;;;;;;25.11;58.08;101137.97;6176845;23;20190;-82
2022/05/31 10:40:55;;;;;;;22.95;16.05;;;;;;;25.18;57.35;101108.88;6188312;23;20028;-80
2022/05/31 10:43:30;;;;;;;20.27;15.00;;;;;;;25.13;58.13;101095.94;6186560;23;20484;-82
2022/05/31 10:46:01;;;;;;;18.75;15.35;;;;;;;24.59;57.82;101007.78;6186496;23;20276;-81
2022/05/31 10:48:29;;;;;;;;;;;;;;;25.25;57.74;101139.56;6187204;23;20087;-81
2022/05/31 10:51:34;;;;;;;21.70;13.82;;;;;;;24.77;58.15;101080.31;6186450;23;19916;-83
2022/05/31 10:54:27;;;;;;;18.73;13.45;;;;;;;25.37;57.41;101135.06;6145257;23;20013;-80
2022/05/31 10:57:14;;;;;;;20.88;13.40;;;;;;;25.51;55.96;101092.31;6186614;23;20021;-82
2022/05/31 10:59:46;;;;;;;22.30;12.80;;;;;;;25.85;55.77;101124.59;6186299;23;20361;-81
2022/05/31 11:02:29;;;;;;;;;;;;;;;25.95;54.52;101135.84;6186751;23;20036;-80
2022/05/31 11:05:04;;;;;;;15.05;10.80;;;;;;;25.99;54.98;101132.41;6186707;23;19916;-81
2022/05/31 11:07:33;;;;;;;15.20;10.55;;;;;;;26.09;54.28;101125.63;6187325;23;20029;-81
2022/05/31 11:13:38;;;;;;;17.23;11.30;;;;;;;25.82;55.63;101125.88;6178738;23;20045;-81
2022/05/31 11:16:28;;;;;;;19.67;11.50;;;;;;;25.49;55.97;101075.38;6186606;23;20017;-83
2022/05/31 11:19:05;;;;;;;15.82;10.88;;;;;;;25.65;55.19;101075.84;6183996;23;20024;-81
2022/05/31 11:21:46;;;;;;;14.82;11.85;;;;;;;25.89;55.71;101123.13;6184476;23;20397;-79
2022/05/31 11:24:41;;;;;;;14.57;10.95;;;;;;;26.26;54.96;101115.78;6186369;23;20338;-79
2022/05/31 11:27:19;;;;;;;16.95;10.88;;;;;;;26.59;54.91;101122.75;6152135;23;20021;-77
2022/05/31 11:30:19;;;;;;;15.52;9.80;;;;;;;26.67;53.42;101099.78;6186115;23;20025;-80
2022/05/31 11:33:08;;;;;;;10.00;8.75;;;;;;;26.80;52.63;101110.53;6170117;23;20457;-80
2022/05/31 11:35:42;;;;;;;10.88;8.30;;;;;;;26.51;53.10;101115.69;6186687;23;20075;-80
2022/05/31 11:38:21;;;;;;;8.13;7.28;;;;;;;26.45;52.39;101122.03;6176359;23;20530;-79
2022/05/31 11:41:24;;;;;;;8.90;8.00;;;;;;;26.49;52.75;101108.81;6186377;23;20052;-78
2022/05/31 11:44:30;;;;;;;13.68;10.32;;;;;;;26.50;54.47;101113.19;6186007;23;20021;-78
2022/05/31 11:47:11;;;;;;;16.23;10.90;;;;;;;26.50;54.67;101113.19;6100590;23;20025;-78
2022/05/31 11:49:38;;;;;;;15.32;9.95;;;;;;;26.41;55.16;101112.69;6125429;23;20069;-79
2022/05/31 11:52:15;;;;;;;18.48;10.13;;;;;;;25.61;55.17;101003.94;6149074;23;20445;-79
2022/05/31 11:58:17;;;;;;;20.48;9.55;;;;;;;26.81;53.23;101091.19;6188936;23;20398;-78
2022/05/31 12:01:01;;;;;;;13.02;8.90;;;;;;;27.00;52.34;101100.13;6174681;23;20344;-80